Impacts TAF Board
For situational awareness. Not to be used for flight planning purposes.
IDs:

KIAD - Washington/Dulles In, VA, US

Issued at 2057 UTC 18 Nov 2018
Updated at 2249 UTC 18 Nov 2018
Potential Impact None Slight Moderate High
Time2152Z 18/23Z 19/00Z 19/01Z 19/02Z 19/03Z 19/04Z 19/05Z 19/06Z 19/07Z 19/08Z 19/09Z 19/10Z 19/11Z>>
Type OBS PRVL PRVL PRVL PRVL PRVL PRVL PRVL PRVL PRVL PRVL PRVL PRVL PRVL
VIS 10 >6 >6 >6 >6 >6 >6 >6 >6 >6 >6 >6 >6 >6
CIG 160 150 150 150 150 150 150 150 150 150 150 150 150 150
Cover BKN BKN BKN BKN BKN BKN BKN BKN BKN BKN BKN BKN BKN BKN
FltCat VFR VFR VFR VFR VFR VFR VFR VFR VFR VFR VFR VFR VFR VFR
WX -- -- -- -- -- -- -- -- -- -- -- -- -- --
WDir 160 170 170 170 170 170 170 170 170 170 170 170 170 170
WSpd 3 5 5 5 5 5 5 5 5 5 5 5 5 5
WGst -- -- -- -- -- -- -- -- -- -- -- -- -- --
Raw TAF
KIAD 182057Z 1821/1924 17005KT P6SM SCT030 BKN150
  FM191300 VRB03KT P6SM BKN080


Raw METAR
KIAD 182152Z COR 16003KT 10SM BKN160 BKN250 08/04 A3022 RMK AO2 SLP236 T00780039
KIAD 182052Z 19004KT 10SM FEW035 BKN055 BKN220 09/04 A3023 RMK AO2 SLP240 T00940044 56017
KIAD 181952Z 18007KT 10SM SCT035 BKN055 BKN220 09/04 A3024 RMK AO2 SLP243 T00940039

METAR Board
Radar Display
Forecast Discussion
For situational awareness. Not to be used for flight planning purposes.